sensor_id;sensor_type;location;lat;lon;timestamp;P1;durP1;ratioP1;P2;durP2;ratioP2
17935;SDS011;9093;52.062;4.508;2023-06-26T00:00:52;6.80;;;2.85;;
17935;SDS011;9093;52.062;4.508;2023-06-26T00:03:32;5.88;;;3.08;;
17935;SDS011;9093;52.062;4.508;2023-06-26T00:06:13;3.78;;;2.63;;
17935;SDS011;9093;52.062;4.508;2023-06-26T00:08:53;4.90;;;2.83;;
17935;SDS011;9093;52.062;4.508;2023-06-26T00:11:34;4.97;;;2.55;;
17935;SDS011;9093;52.062;4.508;2023-06-26T00:14:15;3.58;;;2.17;;
17935;SDS011;9093;52.062;4.508;2023-06-26T00:16:55;6.10;;;2.70;;
17935;SDS011;9093;52.062;4.508;2023-06-26T00:19:35;4.05;;;2.40;;
17935;SDS011;9093;52.062;4.508;2023-06-26T00:22:16;10.93;;;2.87;;
17935;SDS011;9093;52.062;4.508;2023-06-26T00:24:56;7.45;;;2.67;;
17935;SDS011;9093;52.062;4.508;2023-06-26T00:27:36;6.00;;;2.50;;
17935;SDS011;9093;52.062;4.508;2023-06-26T00:30:17;6.30;;;2.65;;
17935;SDS011;9093;52.062;4.508;2023-06-26T00:32:57;7.60;;;3.15;;
17935;SDS011;9093;52.062;4.508;2023-06-26T00:35:38;7.20;;;2.47;;
17935;SDS011;9093;52.062;4.508;2023-06-26T00:38:18;5.95;;;2.58;;
17935;SDS011;9093;52.062;4.508;2023-06-26T00:40:58;4.10;;;2.65;;
17935;SDS011;9093;52.062;4.508;2023-06-26T00:43:42;4.88;;;2.22;;
17935;SDS011;9093;52.062;4.508;2023-06-26T00:46:22;4.88;;;2.53;;
17935;SDS011;9093;52.062;4.508;2023-06-26T00:49:04;10.05;;;2.50;;
17935;SDS011;9093;52.062;4.508;2023-06-26T00:51:44;8.10;;;2.63;;
17935;SDS011;9093;52.062;4.508;2023-06-26T00:54:25;5.70;;;2.40;;
17935;SDS011;9093;52.062;4.508;2023-06-26T00:57:06;7.82;;;2.38;;
17935;SDS011;9093;52.062;4.508;2023-06-26T00:59:46;5.30;;;2.22;;
17935;SDS011;9093;52.062;4.508;2023-06-26T01:02:26;6.32;;;2.08;;
17935;SDS011;9093;52.062;4.508;2023-06-26T01:05:13;6.60;;;2.13;;
17935;SDS011;9093;52.062;4.508;2023-06-26T01:08:00;8.00;;;2.00;;
17935;SDS011;9093;52.062;4.508;2023-06-26T01:10:42;4.70;;;2.05;;
17935;SDS011;9093;52.062;4.508;2023-06-26T01:13:22;7.57;;;2.50;;
17935;SDS011;9093;52.062;4.508;2023-06-26T01:16:03;17.17;;;2.40;;
17935;SDS011;9093;52.062;4.508;2023-06-26T01:18:45;7.43;;;2.25;;
17935;SDS011;9093;52.062;4.508;2023-06-26T01:21:26;9.43;;;2.42;;
17935;SDS011;9093;52.062;4.508;2023-06-26T01:24:16;6.85;;;2.30;;
17935;SDS011;9093;52.062;4.508;2023-06-26T01:27:00;11.10;;;2.67;;
17935;SDS011;9093;52.062;4.508;2023-06-26T01:29:42;4.75;;;1.90;;
17935;SDS011;9093;52.062;4.508;2023-06-26T01:32:25;8.20;;;2.20;;
17935;SDS011;9093;52.062;4.508;2023-06-26T01:35:06;8.63;;;2.33;;
17935;SDS011;9093;52.062;4.508;2023-06-26T01:37:48;10.73;;;2.10;;
17935;SDS011;9093;52.062;4.508;2023-06-26T01:40:28;15.67;;;2.20;;
17935;SDS011;9093;52.062;4.508;2023-06-26T01:43:16;7.28;;;1.80;;
17935;SDS011;9093;52.062;4.508;2023-06-26T01:46:05;7.20;;;2.00;;
17935;SDS011;9093;52.062;4.508;2023-06-26T01:51:55;7.57;;;2.03;;
17935;SDS011;9093;52.062;4.508;2023-06-26T01:54:52;8.35;;;2.25;;
17935;SDS011;9093;52.062;4.508;2023-06-26T01:57:37;9.95;;;2.60;;
17935;SDS011;9093;52.062;4.508;2023-06-26T02:00:19;5.28;;;1.98;;
17935;SDS011;9093;52.062;4.508;2023-06-26T02:03:01;14.18;;;2.83;;
17935;SDS011;9093;52.062;4.508;2023-06-26T02:05:41;10.30;;;2.22;;
17935;SDS011;9093;52.062;4.508;2023-06-26T02:08:22;12.55;;;2.50;;
17935;SDS011;9093;52.062;4.508;2023-06-26T02:11:03;8.95;;;2.38;;
17935;SDS011;9093;52.062;4.508;2023-06-26T02:13:43;10.53;;;2.43;;
17935;SDS011;9093;52.062;4.508;2023-06-26T02:16:26;5.60;;;2.58;;
17935;SDS011;9093;52.062;4.508;2023-06-26T02:19:06;11.75;;;2.38;;
17935;SDS011;9093;52.062;4.508;2023-06-26T02:21:47;10.67;;;2.83;;
17935;SDS011;9093;52.062;4.508;2023-06-26T02:24:29;8.27;;;3.10;;
17935;SDS011;9093;52.062;4.508;2023-06-26T02:27:10;8.55;;;2.60;;
17935;SDS011;9093;52.062;4.508;2023-06-26T02:29:51;7.28;;;2.88;;
17935;SDS011;9093;52.062;4.508;2023-06-26T02:32:31;8.65;;;2.38;;
17935;SDS011;9093;52.062;4.508;2023-06-26T02:35:12;11.50;;;2.70;;
17935;SDS011;9093;52.062;4.508;2023-06-26T02:37:52;7.88;;;2.50;;
17935;SDS011;9093;52.062;4.508;2023-06-26T02:40:32;10.37;;;2.67;;
17935;SDS011;9093;52.062;4.508;2023-06-26T02:43:13;10.52;;;2.72;;
17935;SDS011;9093;52.062;4.508;2023-06-26T02:45:53;11.10;;;2.58;;
17935;SDS011;9093;52.062;4.508;2023-06-26T02:48:34;10.80;;;2.57;;
17935;SDS011;9093;52.062;4.508;2023-06-26T02:51:14;10.23;;;2.75;;
17935;SDS011;9093;52.062;4.508;2023-06-26T02:53:55;8.98;;;2.70;;
17935;SDS011;9093;52.062;4.508;2023-06-26T02:56:35;17.13;;;2.90;;
17935;SDS011;9093;52.062;4.508;2023-06-26T02:59:15;10.73;;;2.60;;
17935;SDS011;9093;52.062;4.508;2023-06-26T03:01:56;6.60;;;2.08;;
17935;SDS011;9093;52.062;4.508;2023-06-26T03:04:36;5.95;;;2.33;;
17935;SDS011;9093;52.062;4.508;2023-06-26T03:07:16;12.35;;;3.25;;
17935;SDS011;9093;52.062;4.508;2023-06-26T03:09:57;10.85;;;2.70;;
17935;SDS011;9093;52.062;4.508;2023-06-26T03:12:37;5.88;;;2.42;;
17935;SDS011;9093;52.062;4.508;2023-06-26T03:15:17;12.30;;;2.40;;
17935;SDS011;9093;52.062;4.508;2023-06-26T03:17:59;6.80;;;3.00;;
17935;SDS011;9093;52.062;4.508;2023-06-26T03:20:39;9.73;;;2.65;;
17935;SDS011;9093;52.062;4.508;2023-06-26T03:23:20;10.90;;;2.90;;
17935;SDS011;9093;52.062;4.508;2023-06-26T03:26:00;4.82;;;2.30;;
17935;SDS011;9093;52.062;4.508;2023-06-26T03:28:41;11.60;;;2.15;;
17935;SDS011;9093;52.062;4.508;2023-06-26T03:31:22;13.50;;;3.08;;
17935;SDS011;9093;52.062;4.508;2023-06-26T03:34:02;8.98;;;3.05;;
17935;SDS011;9093;52.062;4.508;2023-06-26T03:36:42;19.33;;;2.58;;
17935;SDS011;9093;52.062;4.508;2023-06-26T03:39:23;5.77;;;1.97;;
17935;SDS011;9093;52.062;4.508;2023-06-26T03:42:03;8.63;;;2.77;;
17935;SDS011;9093;52.062;4.508;2023-06-26T03:44:44;9.23;;;2.33;;
17935;SDS011;9093;52.062;4.508;2023-06-26T03:47:24;10.00;;;2.58;;
17935;SDS011;9093;52.062;4.508;2023-06-26T03:50:04;7.97;;;2.30;;
17935;SDS011;9093;52.062;4.508;2023-06-26T03:52:45;9.93;;;2.42;;
17935;SDS011;9093;52.062;4.508;2023-06-26T03:55:25;13.98;;;3.28;;
17935;SDS011;9093;52.062;4.508;2023-06-26T03:58:06;7.35;;;2.17;;
17935;SDS011;9093;52.062;4.508;2023-06-26T04:00:46;9.40;;;2.13;;
17935;SDS011;9093;52.062;4.508;2023-06-26T04:03:27;9.40;;;2.67;;
17935;SDS011;9093;52.062;4.508;2023-06-26T04:06:08;8.73;;;2.30;;
17935;SDS011;9093;52.062;4.508;2023-06-26T04:08:49;8.55;;;2.03;;
17935;SDS011;9093;52.062;4.508;2023-06-26T04:11:29;5.50;;;2.00;;
17935;SDS011;9093;52.062;4.508;2023-06-26T04:14:11;8.70;;;2.08;;
17935;SDS011;9093;52.062;4.508;2023-06-26T04:16:51;5.47;;;1.70;;
17935;SDS011;9093;52.062;4.508;2023-06-26T04:19:32;8.98;;;1.67;;
17935;SDS011;9093;52.062;4.508;2023-06-26T04:22:12;9.80;;;2.00;;
17935;SDS011;9093;52.062;4.508;2023-06-26T04:24:53;3.75;;;1.77;;
17935;SDS011;9093;52.062;4.508;2023-06-26T04:27:33;4.07;;;2.00;;
17935;SDS011;9093;52.062;4.508;2023-06-26T04:30:13;7.13;;;1.97;;
17935;SDS011;9093;52.062;4.508;2023-06-26T04:32:54;2.42;;;1.42;;
17935;SDS011;9093;52.062;4.508;2023-06-26T04:35:38;6.82;;;1.40;;
17935;SDS011;9093;52.062;4.508;2023-06-26T04:38:19;4.38;;;1.50;;
17935;SDS011;9093;52.062;4.508;2023-06-26T04:41:01;2.03;;;1.35;;
17935;SDS011;9093;52.062;4.508;2023-06-26T04:43:41;2.20;;;1.48;;
17935;SDS011;9093;52.062;4.508;2023-06-26T04:46:22;4.45;;;1.40;;
17935;SDS011;9093;52.062;4.508;2023-06-26T04:49:02;4.05;;;1.60;;
17935;SDS011;9093;52.062;4.508;2023-06-26T04:51:43;3.97;;;1.73;;
17935;SDS011;9093;52.062;4.508;2023-06-26T04:54:23;4.68;;;1.63;;
17935;SDS011;9093;52.062;4.508;2023-06-26T04:57:04;4.27;;;1.93;;
17935;SDS011;9093;52.062;4.508;2023-06-26T04:59:44;5.28;;;1.77;;
17935;SDS011;9093;52.062;4.508;2023-06-26T05:02:25;6.18;;;1.73;;
17935;SDS011;9093;52.062;4.508;2023-06-26T05:05:06;4.10;;;1.83;;
17935;SDS011;9093;52.062;4.508;2023-06-26T05:07:47;4.22;;;1.73;;
17935;SDS011;9093;52.062;4.508;2023-06-26T05:10:27;3.60;;;1.77;;
17935;SDS011;9093;52.062;4.508;2023-06-26T05:13:08;2.43;;;1.70;;
17935;SDS011;9093;52.062;4.508;2023-06-26T05:18:32;8.13;;;2.05;;
17935;SDS011;9093;52.062;4.508;2023-06-26T05:21:12;5.22;;;1.73;;
17935;SDS011;9093;52.062;4.508;2023-06-26T05:23:53;3.03;;;1.52;;
17935;SDS011;9093;52.062;4.508;2023-06-26T05:26:38;4.10;;;1.70;;
17935;SDS011;9093;52.062;4.508;2023-06-26T05:29:19;5.60;;;1.90;;
17935;SDS011;9093;52.062;4.508;2023-06-26T05:31:59;2.58;;;1.50;;
17935;SDS011;9093;52.062;4.508;2023-06-26T05:34:40;2.83;;;1.58;;
17935;SDS011;9093;52.062;4.508;2023-06-26T05:37:21;6.90;;;1.80;;
17935;SDS011;9093;52.062;4.508;2023-06-26T05:40:02;2.50;;;1.30;;
17935;SDS011;9093;52.062;4.508;2023-06-26T05:42:44;4.85;;;1.15;;
17935;SDS011;9093;52.062;4.508;2023-06-26T05:45:24;2.70;;;1.30;;
17935;SDS011;9093;52.062;4.508;2023-06-26T05:48:05;3.55;;;1.20;;
17935;SDS011;9093;52.062;4.508;2023-06-26T05:50:45;5.55;;;1.10;;
17935;SDS011;9093;52.062;4.508;2023-06-26T05:53:26;3.38;;;1.08;;
17935;SDS011;9093;52.062;4.508;2023-06-26T05:56:06;2.83;;;1.00;;
17935;SDS011;9093;52.062;4.508;2023-06-26T05:58:47;1.92;;;0.88;;
17935;SDS011;9093;52.062;4.508;2023-06-26T06:01:28;2.15;;;0.95;;
17935;SDS011;9093;52.062;4.508;2023-06-26T06:04:08;7.67;;;1.00;;
17935;SDS011;9093;52.062;4.508;2023-06-26T06:06:48;1.60;;;0.70;;
17935;SDS011;9093;52.062;4.508;2023-06-26T06:09:31;3.42;;;0.90;;
17935;SDS011;9093;52.062;4.508;2023-06-26T06:14:52;4.97;;;1.10;;
17935;SDS011;9093;52.062;4.508;2023-06-26T06:17:33;6.53;;;1.10;;
17935;SDS011;9093;52.062;4.508;2023-06-26T06:20:13;2.53;;;0.80;;
17935;SDS011;9093;52.062;4.508;2023-06-26T06:22:53;4.28;;;0.90;;
17935;SDS011;9093;52.062;4.508;2023-06-26T06:25:34;2.20;;;0.95;;
17935;SDS011;9093;52.062;4.508;2023-06-26T06:28:14;5.00;;;0.90;;
17935;SDS011;9093;52.062;4.508;2023-06-26T06:30:56;4.73;;;0.83;;
17935;SDS011;9093;52.062;4.508;2023-06-26T06:33:36;4.00;;;1.23;;
17935;SDS011;9093;52.062;4.508;2023-06-26T06:36:17;4.70;;;0.80;;
17935;SDS011;9093;52.062;4.508;2023-06-26T06:38:57;5.87;;;0.80;;
17935;SDS011;9093;52.062;4.508;2023-06-26T06:41:38;4.82;;;0.90;;
17935;SDS011;9093;52.062;4.508;2023-06-26T06:44:18;3.75;;;0.90;;
17935;SDS011;9093;52.062;4.508;2023-06-26T06:46:58;3.03;;;0.93;;
17935;SDS011;9093;52.062;4.508;2023-06-26T06:49:44;6.90;;;1.40;;
17935;SDS011;9093;52.062;4.508;2023-06-26T06:55:05;2.17;;;0.63;;
17935;SDS011;9093;52.062;4.508;2023-06-26T06:57:48;5.95;;;1.10;;
17935;SDS011;9093;52.062;4.508;2023-06-26T07:00:28;2.65;;;1.10;;
17935;SDS011;9093;52.062;4.508;2023-06-26T07:03:12;2.15;;;0.70;;
17935;SDS011;9093;52.062;4.508;2023-06-26T07:05:52;2.05;;;0.95;;
17935;SDS011;9093;52.062;4.508;2023-06-26T07:08:32;4.50;;;0.90;;
17935;SDS011;9093;52.062;4.508;2023-06-26T07:11:13;11.32;;;1.20;;
17935;SDS011;9093;52.062;4.508;2023-06-26T07:13:53;5.82;;;1.10;;
17935;SDS011;9093;52.062;4.508;2023-06-26T07:16:33;2.42;;;1.20;;
17935;SDS011;9093;52.062;4.508;2023-06-26T07:19:13;6.73;;;1.13;;
17935;SDS011;9093;52.062;4.508;2023-06-26T07:21:54;8.05;;;1.13;;
17935;SDS011;9093;52.062;4.508;2023-06-26T07:24:34;7.35;;;1.48;;
17935;SDS011;9093;52.062;4.508;2023-06-26T07:27:15;3.33;;;1.02;;
17935;SDS011;9093;52.062;4.508;2023-06-26T07:29:55;7.05;;;1.33;;
17935;SDS011;9093;52.062;4.508;2023-06-26T07:32:36;6.97;;;0.70;;
17935;SDS011;9093;52.062;4.508;2023-06-26T07:35:17;1.23;;;0.75;;
17935;SDS011;9093;52.062;4.508;2023-06-26T07:37:58;4.07;;;1.23;;
17935;SDS011;9093;52.062;4.508;2023-06-26T07:40:40;3.38;;;1.20;;
17935;SDS011;9093;52.062;4.508;2023-06-26T07:43:21;4.50;;;1.10;;
17935;SDS011;9093;52.062;4.508;2023-06-26T07:46:02;2.65;;;0.90;;
17935;SDS011;9093;52.062;4.508;2023-06-26T07:48:43;3.00;;;0.82;;
17935;SDS011;9093;52.062;4.508;2023-06-26T07:51:23;2.47;;;0.90;;
17935;SDS011;9093;52.062;4.508;2023-06-26T07:54:04;5.18;;;1.08;;
17935;SDS011;9093;52.062;4.508;2023-06-26T07:56:57;4.85;;;0.70;;
17935;SDS011;9093;52.062;4.508;2023-06-26T07:59:39;1.83;;;0.93;;
17935;SDS011;9093;52.062;4.508;2023-06-26T08:02:19;5.15;;;1.17;;
17935;SDS011;9093;52.062;4.508;2023-06-26T08:04:59;3.50;;;0.90;;
17935;SDS011;9093;52.062;4.508;2023-06-26T08:07:40;4.10;;;0.88;;
17935;SDS011;9093;52.062;4.508;2023-06-26T08:10:20;2.47;;;1.10;;
17935;SDS011;9093;52.062;4.508;2023-06-26T08:13:00;13.57;;;1.48;;
17935;SDS011;9093;52.062;4.508;2023-06-26T08:15:41;6.30;;;1.00;;
17935;SDS011;9093;52.062;4.508;2023-06-26T08:18:21;5.97;;;1.00;;
17935;SDS011;9093;52.062;4.508;2023-06-26T08:21:01;9.00;;;1.55;;
17935;SDS011;9093;52.062;4.508;2023-06-26T08:23:41;6.82;;;1.25;;
17935;SDS011;9093;52.062;4.508;2023-06-26T08:26:22;3.33;;;1.17;;
17935;SDS011;9093;52.062;4.508;2023-06-26T08:29:02;6.88;;;0.98;;
17935;SDS011;9093;52.062;4.508;2023-06-26T08:31:48;3.05;;;0.98;;
17935;SDS011;9093;52.062;4.508;2023-06-26T08:34:30;4.20;;;1.00;;
17935;SDS011;9093;52.062;4.508;2023-06-26T08:37:10;1.42;;;0.80;;
17935;SDS011;9093;52.062;4.508;2023-06-26T08:39:51;2.00;;;0.77;;
17935;SDS011;9093;52.062;4.508;2023-06-26T08:42:31;7.17;;;1.43;;
17935;SDS011;9093;52.062;4.508;2023-06-26T08:45:11;3.58;;;0.85;;
17935;SDS011;9093;52.062;4.508;2023-06-26T08:47:52;11.40;;;1.40;;
17935;SDS011;9093;52.062;4.508;2023-06-26T08:56:40;3.20;;;0.90;;
17935;SDS011;9093;52.062;4.508;2023-06-26T08:59:22;5.10;;;1.10;;
17935;SDS011;9093;52.062;4.508;2023-06-26T09:02:03;2.42;;;0.82;;
17935;SDS011;9093;52.062;4.508;2023-06-26T09:04:44;4.25;;;0.65;;
17935;SDS011;9093;52.062;4.508;2023-06-26T09:07:24;3.42;;;1.20;;
17935;SDS011;9093;52.062;4.508;2023-06-26T09:10:05;2.63;;;1.15;;
17935;SDS011;9093;52.062;4.508;2023-06-26T09:12:46;10.73;;;1.33;;
17935;SDS011;9093;52.062;4.508;2023-06-26T09:15:36;18.27;;;1.20;;
17935;SDS011;9093;52.062;4.508;2023-06-26T09:18:22;3.67;;;1.35;;
17935;SDS011;9093;52.062;4.508;2023-06-26T09:21:06;2.13;;;0.85;;
17935;SDS011;9093;52.062;4.508;2023-06-26T09:23:48;2.63;;;1.17;;
17935;SDS011;9093;52.062;4.508;2023-06-26T09:26:29;4.03;;;1.23;;
17935;SDS011;9093;52.062;4.508;2023-06-26T09:29:10;11.40;;;1.40;;
17935;SDS011;9093;52.062;4.508;2023-06-26T09:31:51;5.82;;;1.10;;
17935;SDS011;9093;52.062;4.508;2023-06-26T09:34:32;1.73;;;0.98;;
17935;SDS011;9093;52.062;4.508;2023-06-26T09:37:13;5.80;;;1.48;;
17935;SDS011;9093;52.062;4.508;2023-06-26T09:39:54;3.35;;;0.90;;
17935;SDS011;9093;52.062;4.508;2023-06-26T09:42:34;3.77;;;0.97;;
17935;SDS011;9093;52.062;4.508;2023-06-26T09:45:18;7.95;;;1.10;;
17935;SDS011;9093;52.062;4.508;2023-06-26T09:48:00;13.60;;;1.60;;
17935;SDS011;9093;52.062;4.508;2023-06-26T09:53:23;5.28;;;1.40;;
17935;SDS011;9093;52.062;4.508;2023-06-26T09:56:06;4.70;;;1.20;;
17935;SDS011;9093;52.062;4.508;2023-06-26T09:58:47;1.95;;;0.90;;
17935;SDS011;9093;52.062;4.508;2023-06-26T10:01:29;2.42;;;1.00;;
17935;SDS011;9093;52.062;4.508;2023-06-26T10:04:10;2.67;;;0.80;;
17935;SDS011;9093;52.062;4.508;2023-06-26T10:06:51;2.65;;;0.90;;
17935;SDS011;9093;52.062;4.508;2023-06-26T10:09:33;2.22;;;1.02;;
17935;SDS011;9093;52.062;4.508;2023-06-26T10:12:38;2.08;;;0.88;;
17935;SDS011;9093;52.062;4.508;2023-06-26T10:15:19;7.75;;;1.38;;
17935;SDS011;9093;52.062;4.508;2023-06-26T10:18:00;2.97;;;0.88;;
17935;SDS011;9093;52.062;4.508;2023-06-26T10:20:41;3.83;;;1.00;;
17935;SDS011;9093;52.062;4.508;2023-06-26T10:23:23;0.85;;;0.60;;
17935;SDS011;9093;52.062;4.508;2023-06-26T10:26:07;1.73;;;0.80;;
17935;SDS011;9093;52.062;4.508;2023-06-26T10:28:49;3.40;;;1.00;;
17935;SDS011;9093;52.062;4.508;2023-06-26T10:31:32;7.30;;;1.00;;
17935;SDS011;9093;52.062;4.508;2023-06-26T10:34:14;5.20;;;0.90;;
17935;SDS011;9093;52.062;4.508;2023-06-26T10:36:58;1.58;;;0.82;;
17935;SDS011;9093;52.062;4.508;2023-06-26T10:39:51;4.55;;;0.98;;
17935;SDS011;9093;52.062;4.508;2023-06-26T10:42:35;4.35;;;1.10;;
17935;SDS011;9093;52.062;4.508;2023-06-26T10:45:19;4.10;;;1.10;;
17935;SDS011;9093;52.062;4.508;2023-06-26T10:48:00;1.80;;;0.90;;
17935;SDS011;9093;52.062;4.508;2023-06-26T10:50:40;2.38;;;0.70;;
17935;SDS011;9093;52.062;4.508;2023-06-26T10:56:03;3.28;;;0.80;;
17935;SDS011;9093;52.062;4.508;2023-06-26T10:58:44;2.35;;;0.85;;
17935;SDS011;9093;52.062;4.508;2023-06-26T11:01:26;8.93;;;0.90;;
17935;SDS011;9093;52.062;4.508;2023-06-26T11:04:07;3.30;;;0.90;;
17935;SDS011;9093;52.062;4.508;2023-06-26T11:06:48;3.22;;;0.90;;
17935;SDS011;9093;52.062;4.508;2023-06-26T11:10:05;7.78;;;0.95;;
17935;SDS011;9093;52.062;4.508;2023-06-26T11:12:48;1.23;;;0.80;;
17935;SDS011;9093;52.062;4.508;2023-06-26T11:15:29;1.73;;;0.80;;
17935;SDS011;9093;52.062;4.508;2023-06-26T11:18:10;1.40;;;0.88;;
17935;SDS011;9093;52.062;4.508;2023-06-26T11:20:55;1.50;;;1.15;;
17935;SDS011;9093;52.062;4.508;2023-06-26T11:23:45;3.50;;;0.80;;
17935;SDS011;9093;52.062;4.508;2023-06-26T11:26:27;2.75;;;1.15;;
17935;SDS011;9093;52.062;4.508;2023-06-26T11:29:08;3.28;;;1.30;;
17935;SDS011;9093;52.062;4.508;2023-06-26T11:31:49;2.90;;;0.90;;
17935;SDS011;9093;52.062;4.508;2023-06-26T11:34:38;1.27;;;0.68;;
17935;SDS011;9093;52.062;4.508;2023-06-26T11:37:21;3.67;;;1.02;;
17935;SDS011;9093;52.062;4.508;2023-06-26T11:40:18;2.35;;;0.82;;
17935;SDS011;9093;52.062;4.508;2023-06-26T11:43:01;1.55;;;0.68;;
17935;SDS011;9093;52.062;4.508;2023-06-26T11:45:45;1.75;;;0.60;;
17935;SDS011;9093;52.062;4.508;2023-06-26T11:48:26;3.75;;;0.90;;
17935;SDS011;9093;52.062;4.508;2023-06-26T11:51:06;2.90;;;0.95;;
17935;SDS011;9093;52.062;4.508;2023-06-26T11:53:47;2.47;;;0.90;;
17935;SDS011;9093;52.062;4.508;2023-06-26T11:56:28;2.83;;;0.82;;
17935;SDS011;9093;52.062;4.508;2023-06-26T11:59:11;5.25;;;0.90;;
17935;SDS011;9093;52.062;4.508;2023-06-26T12:01:52;5.20;;;0.88;;
17935;SDS011;9093;52.062;4.508;2023-06-26T12:04:33;3.25;;;0.77;;
17935;SDS011;9093;52.062;4.508;2023-06-26T12:07:15;1.70;;;1.00;;
17935;SDS011;9093;52.062;4.508;2023-06-26T12:09:57;2.00;;;1.00;;
17935;SDS011;9093;52.062;4.508;2023-06-26T12:12:45;7.90;;;0.90;;
17935;SDS011;9093;52.062;4.508;2023-06-26T12:15:26;1.25;;;0.80;;
17935;SDS011;9093;52.062;4.508;2023-06-26T12:18:08;1.83;;;0.77;;
17935;SDS011;9093;52.062;4.508;2023-06-26T12:20:49;3.33;;;0.93;;
17935;SDS011;9093;52.062;4.508;2023-06-26T12:23:33;3.72;;;0.88;;
17935;SDS011;9093;52.062;4.508;2023-06-26T12:26:19;2.63;;;1.00;;
17935;SDS011;9093;52.062;4.508;2023-06-26T12:29:13;3.10;;;0.85;;
17935;SDS011;9093;52.062;4.508;2023-06-26T12:31:57;7.80;;;1.00;;
17935;SDS011;9093;52.062;4.508;2023-06-26T12:34:38;1.88;;;0.77;;
17935;SDS011;9093;52.062;4.508;2023-06-26T12:37:19;2.47;;;0.80;;
17935;SDS011;9093;52.062;4.508;2023-06-26T12:39:59;2.15;;;0.65;;
17935;SDS011;9093;52.062;4.508;2023-06-26T12:42:40;2.78;;;0.82;;
17935;SDS011;9093;52.062;4.508;2023-06-26T12:45:21;2.07;;;0.70;;
17935;SDS011;9093;52.062;4.508;2023-06-26T12:48:11;0.90;;;0.60;;
17935;SDS011;9093;52.062;4.508;2023-06-26T12:50:55;1.48;;;0.70;;
17935;SDS011;9093;52.062;4.508;2023-06-26T12:53:35;3.28;;;0.82;;
17935;SDS011;9093;52.062;4.508;2023-06-26T12:56:15;1.08;;;0.68;;
17935;SDS011;9093;52.062;4.508;2023-06-26T12:58:56;1.95;;;0.95;;
17935;SDS011;9093;52.062;4.508;2023-06-26T13:01:36;4.15;;;0.60;;
17935;SDS011;9093;52.062;4.508;2023-06-26T13:04:16;4.13;;;1.27;;
17935;SDS011;9093;52.062;4.508;2023-06-26T13:06:57;3.13;;;0.88;;
17935;SDS011;9093;52.062;4.508;2023-06-26T13:09:37;3.08;;;0.73;;
17935;SDS011;9093;52.062;4.508;2023-06-26T13:12:18;6.05;;;0.80;;
17935;SDS011;9093;52.062;4.508;2023-06-26T13:15:02;2.58;;;0.80;;
17935;SDS011;9093;52.062;4.508;2023-06-26T13:17:42;1.10;;;0.70;;
17935;SDS011;9093;52.062;4.508;2023-06-26T13:20:23;1.15;;;0.60;;
17935;SDS011;9093;52.062;4.508;2023-06-26T13:23:03;4.63;;;0.80;;
17935;SDS011;9093;52.062;4.508;2023-06-26T13:25:44;1.15;;;0.50;;
17935;SDS011;9093;52.062;4.508;2023-06-26T13:28:24;1.88;;;0.60;;
17935;SDS011;9093;52.062;4.508;2023-06-26T13:31:05;5.32;;;1.88;;
17935;SDS011;9093;52.062;4.508;2023-06-26T13:33:45;1.77;;;0.82;;
17935;SDS011;9093;52.062;4.508;2023-06-26T13:39:08;5.43;;;1.00;;
17935;SDS011;9093;52.062;4.508;2023-06-26T13:41:49;2.17;;;0.80;;
17935;SDS011;9093;52.062;4.508;2023-06-26T13:44:29;1.17;;;0.68;;
17935;SDS011;9093;52.062;4.508;2023-06-26T13:47:12;4.83;;;0.87;;
17935;SDS011;9093;52.062;4.508;2023-06-26T13:49:53;2.13;;;1.20;;
17935;SDS011;9093;52.062;4.508;2023-06-26T13:52:33;3.93;;;0.83;;
17935;SDS011;9093;52.062;4.508;2023-06-26T13:55:13;1.55;;;0.68;;
17935;SDS011;9093;52.062;4.508;2023-06-26T13:57:54;1.92;;;0.60;;
17935;SDS011;9093;52.062;4.508;2023-06-26T14:00:36;1.52;;;0.65;;
17935;SDS011;9093;52.062;4.508;2023-06-26T14:03:16;3.15;;;0.80;;
17935;SDS011;9093;52.062;4.508;2023-06-26T14:05:57;2.70;;;0.73;;
17935;SDS011;9093;52.062;4.508;2023-06-26T14:08:38;1.42;;;0.85;;
17935;SDS011;9093;52.062;4.508;2023-06-26T14:11:18;1.27;;;0.70;;
17935;SDS011;9093;52.062;4.508;2023-06-26T14:14:00;1.75;;;0.52;;
17935;SDS011;9093;52.062;4.508;2023-06-26T14:16:40;6.32;;;0.95;;
17935;SDS011;9093;52.062;4.508;2023-06-26T14:19:20;1.33;;;0.70;;
17935;SDS011;9093;52.062;4.508;2023-06-26T14:22:01;1.58;;;0.80;;
17935;SDS011;9093;52.062;4.508;2023-06-26T14:24:44;2.30;;;0.73;;
17935;SDS011;9093;52.062;4.508;2023-06-26T14:27:24;3.05;;;0.70;;
17935;SDS011;9093;52.062;4.508;2023-06-26T14:30:05;1.88;;;0.80;;
17935;SDS011;9093;52.062;4.508;2023-06-26T14:32:47;6.03;;;1.02;;
17935;SDS011;9093;52.062;4.508;2023-06-26T14:35:27;1.80;;;0.77;;
17935;SDS011;9093;52.062;4.508;2023-06-26T14:38:08;1.23;;;0.70;;
17935;SDS011;9093;52.062;4.508;2023-06-26T14:40:48;2.30;;;0.90;;
17935;SDS011;9093;52.062;4.508;2023-06-26T14:43:28;2.78;;;1.00;;
17935;SDS011;9093;52.062;4.508;2023-06-26T14:46:08;1.20;;;0.70;;
17935;SDS011;9093;52.062;4.508;2023-06-26T14:48:49;3.03;;;0.88;;
17935;SDS011;9093;52.062;4.508;2023-06-26T14:51:31;1.50;;;0.73;;
17935;SDS011;9093;52.062;4.508;2023-06-26T14:54:11;1.30;;;0.75;;
17935;SDS011;9093;52.062;4.508;2023-06-26T14:56:52;2.00;;;0.90;;
17935;SDS011;9093;52.062;4.508;2023-06-26T14:59:32;2.20;;;0.80;;
17935;SDS011;9093;52.062;4.508;2023-06-26T15:02:12;2.40;;;0.60;;
17935;SDS011;9093;52.062;4.508;2023-06-26T15:04:53;1.58;;;0.80;;
17935;SDS011;9093;52.062;4.508;2023-06-26T15:07:33;4.10;;;0.70;;
17935;SDS011;9093;52.062;4.508;2023-06-26T15:10:13;3.15;;;1.15;;
17935;SDS011;9093;52.062;4.508;2023-06-26T15:12:53;1.67;;;0.75;;
17935;SDS011;9093;52.062;4.508;2023-06-26T15:15:34;3.50;;;0.70;;
17935;SDS011;9093;52.062;4.508;2023-06-26T15:18:14;5.93;;;0.90;;
17935;SDS011;9093;52.062;4.508;2023-06-26T15:20:54;1.70;;;0.90;;
17935;SDS011;9093;52.062;4.508;2023-06-26T15:23:37;2.95;;;0.93;;
17935;SDS011;9093;52.062;4.508;2023-06-26T15:26:18;1.65;;;0.90;;
17935;SDS011;9093;52.062;4.508;2023-06-26T15:29:01;7.10;;;1.13;;
17935;SDS011;9093;52.062;4.508;2023-06-26T15:31:42;2.70;;;1.10;;
17935;SDS011;9093;52.062;4.508;2023-06-26T15:34:22;3.57;;;1.07;;
17935;SDS011;9093;52.062;4.508;2023-06-26T15:37:02;2.30;;;1.10;;
17935;SDS011;9093;52.062;4.508;2023-06-26T15:39:43;5.03;;;1.00;;
17935;SDS011;9093;52.062;4.508;2023-06-26T15:42:26;4.53;;;1.00;;
17935;SDS011;9093;52.062;4.508;2023-06-26T15:45:08;1.52;;;0.55;;
17935;SDS011;9093;52.062;4.508;2023-06-26T15:47:49;1.85;;;0.82;;
17935;SDS011;9093;52.062;4.508;2023-06-26T15:50:30;2.42;;;0.90;;
17935;SDS011;9093;52.062;4.508;2023-06-26T15:53:10;5.80;;;1.00;;
17935;SDS011;9093;52.062;4.508;2023-06-26T15:55:57;7.18;;;1.65;;
17935;SDS011;9093;52.062;4.508;2023-06-26T15:58:38;4.70;;;1.67;;
17935;SDS011;9093;52.062;4.508;2023-06-26T16:01:21;4.72;;;1.02;;
17935;SDS011;9093;52.062;4.508;2023-06-26T16:04:02;4.13;;;0.77;;
17935;SDS011;9093;52.062;4.508;2023-06-26T16:06:42;1.38;;;0.73;;
17935;SDS011;9093;52.062;4.508;2023-06-26T16:09:22;1.85;;;1.02;;
17935;SDS011;9093;52.062;4.508;2023-06-26T16:12:03;3.38;;;0.80;;
17935;SDS011;9093;52.062;4.508;2023-06-26T16:14:43;4.30;;;1.23;;
17935;SDS011;9093;52.062;4.508;2023-06-26T16:17:24;4.10;;;0.75;;
17935;SDS011;9093;52.062;4.508;2023-06-26T16:20:04;6.57;;;1.10;;
17935;SDS011;9093;52.062;4.508;2023-06-26T16:22:45;5.53;;;1.10;;
17935;SDS011;9093;52.062;4.508;2023-06-26T16:25:25;4.37;;;1.00;;
17935;SDS011;9093;52.062;4.508;2023-06-26T16:28:05;2.50;;;0.80;;
17935;SDS011;9093;52.062;4.508;2023-06-26T16:30:46;2.70;;;0.90;;
17935;SDS011;9093;52.062;4.508;2023-06-26T16:33:27;1.08;;;0.80;;
17935;SDS011;9093;52.062;4.508;2023-06-26T16:36:07;1.40;;;0.77;;
17935;SDS011;9093;52.062;4.508;2023-06-26T16:38:47;2.03;;;0.80;;
17935;SDS011;9093;52.062;4.508;2023-06-26T16:41:28;2.53;;;0.90;;
17935;SDS011;9093;52.062;4.508;2023-06-26T16:44:08;3.33;;;0.80;;
17935;SDS011;9093;52.062;4.508;2023-06-26T16:46:54;2.80;;;1.15;;
17935;SDS011;9093;52.062;4.508;2023-06-26T16:49:35;2.42;;;0.95;;
17935;SDS011;9093;52.062;4.508;2023-06-26T16:52:16;4.68;;;0.90;;